Time;durP1;ratioP1;P1;durP2;ratioP2;P2;SDS_P1;SDS_P2;PMS_P1;PMS_P2;Temp;Humidity;BMP_temperature;BMP_pressure;BME280_temperature;BME280_humidity;BME280_pressure;Samples;Min_cycle;Max_cycle;Signal;HPM_P1;HPM_P2
2024/02/14 00:02:15;;;;;;;0.00;0.00;;;25.70;41.20;;;;;;4995934;28;20219;-42
2024/02/14 00:04:46;;;;;;;0.00;0.00;;;25.70;41.60;;;;;;4989199;28;20606;-44
2024/02/14 00:07:16;;;;;;;0.00;0.00;;;25.80;41.00;;;;;;4989995;28;20202;-42
2024/02/14 00:09:47;;;;;;;0.00;0.00;;;25.80;40.80;;;;;;5010186;28;20225;-42
2024/02/14 00:12:18;;;;;;;0.00;0.00;;;25.80;40.60;;;;;;5007387;28;20236;-42
2024/02/14 00:14:50;;;;;;;0.00;0.00;;;25.90;40.50;;;;;;5009504;28;20720;-42
2024/02/14 00:17:21;;;;;;;0.00;0.00;;;25.90;40.50;;;;;;4997091;28;20206;-43
2024/02/14 00:19:52;;;;;;;0.00;0.00;;;25.90;40.50;;;;;;4989423;28;20237;-43
2024/02/14 00:22:22;;;;;;;0.00;0.00;;;25.90;40.40;;;;;;4988939;28;20226;-42
2024/02/14 00:24:53;;;;;;;0.00;0.00;;;26.00;40.30;;;;;;4989468;28;20205;-42
2024/02/14 00:27:24;;;;;;;0.00;0.00;;;26.10;40.40;;;;;;4989112;28;20662;-43
2024/02/14 00:29:57;;;;;;;0.00;0.00;;;26.10;40.40;;;;;;5003150;28;20213;-43
2024/02/14 00:32:28;;;;;;;0.00;0.00;;;26.10;40.10;;;;;;5007688;28;20235;-45
2024/02/14 00:34:59;;;;;;;0.00;0.00;;;26.10;40.00;;;;;;5007829;28;20201;-43
2024/02/14 00:37:29;;;;;;;0.00;0.00;;;26.20;39.90;;;;;;5005286;28;20560;-43
2024/02/14 00:40:00;;;;;;;0.00;0.00;;;26.20;39.90;;;;;;5008028;28;20255;-45
2024/02/14 00:42:31;;;;;;;0.00;0.00;;;26.20;39.70;;;;;;5009182;28;20200;-42
2024/02/14 00:45:03;;;;;;;0.00;0.00;;;26.20;39.70;;;;;;5011889;28;20213;-49
2024/02/14 00:47:36;;;;;;;0.00;0.00;;;26.30;39.40;;;;;;5011931;28;20193;-45
2024/02/14 00:50:08;;;;;;;0.00;0.00;;;26.30;39.10;;;;;;5008281;28;20311;-48
2024/02/14 00:52:39;;;;;;;0.00;0.00;;;26.30;39.00;;;;;;5011647;28;20282;-44
2024/02/14 00:55:10;;;;;;;0.00;0.00;;;26.30;38.70;;;;;;5011964;28;20204;-43
2024/02/14 00:57:41;;;;;;;0.00;0.00;;;26.40;38.60;;;;;;5011256;28;20197;-43
2024/02/14 01:00:17;;;;;;;0.00;0.00;;;26.40;38.30;;;;;;5010920;28;20243;-45
2024/02/14 01:02:47;;;;;;;0.00;0.00;;;26.40;38.20;;;;;;5010886;28;20219;-42
2024/02/14 01:05:18;;;;;;;0.00;0.00;;;26.50;38.10;;;;;;5011616;28;20201;-47
2024/02/14 01:07:49;;;;;;;0.00;0.00;;;26.50;38.10;;;;;;5004478;28;20665;-43
2024/02/14 01:10:20;;;;;;;0.00;0.00;;;26.50;38.20;;;;;;5007735;28;20223;-43
2024/02/14 01:12:50;;;;;;;0.00;0.00;;;26.50;38.20;;;;;;5010323;28;20320;-43
2024/02/14 01:15:23;;;;;;;0.00;0.00;;;26.60;38.40;;;;;;5014569;28;20207;-43
2024/02/14 01:17:54;;;;;;;0.00;0.00;;;26.60;38.20;;;;;;5014390;28;20196;-43
2024/02/14 01:20:24;;;;;;;0.00;0.00;;;26.70;38.10;;;;;;5021200;28;20192;-42
2024/02/14 01:22:55;;;;;;;0.00;0.00;;;26.70;38.00;;;;;;5034038;28;20203;-44
2024/02/14 01:25:26;;;;;;;0.00;0.00;;;26.70;38.00;;;;;;5025494;28;20664;-43
2024/02/14 01:27:56;;;;;;;0.00;0.00;;;26.70;37.90;;;;;;5013960;28;20200;-44
2024/02/14 01:30:29;;;;;;;0.00;0.00;;;26.80;37.80;;;;;;5014535;28;20193;-43
2024/02/14 01:33:00;;;;;;;0.00;0.00;;;26.80;37.90;;;;;;5014089;28;20299;-43
2024/02/14 01:35:31;;;;;;;0.00;0.00;;;26.80;38.00;;;;;;5029716;28;20661;-43
2024/02/14 01:38:02;;;;;;;0.00;0.00;;;26.80;38.40;;;;;;4994347;28;20315;-43
2024/02/14 01:40:35;;;;;;;0.00;0.00;;;26.80;37.60;;;;;;5002615;28;20205;-42
2024/02/14 01:43:06;;;;;;;0.00;0.00;;;26.90;37.50;;;;;;5004157;28;20284;-50
2024/02/14 01:45:40;;;;;;;0.00;0.00;;;26.90;37.20;;;;;;4994285;28;20673;-48
2024/02/14 01:48:12;;;;;;;0.00;0.00;;;26.90;36.90;;;;;;5016048;28;20231;-49
2024/02/14 01:50:45;;;;;;;0.00;0.00;;;26.90;36.70;;;;;;5033848;28;20274;-49
2024/02/14 01:53:16;;;;;;;0.00;0.00;;;27.00;36.70;;;;;;5033604;28;20554;-47
2024/02/14 01:55:47;;;;;;;0.00;0.00;;;27.00;36.40;;;;;;5033065;28;20200;-45
2024/02/14 01:58:18;;;;;;;0.00;0.00;;;27.00;36.20;;;;;;4994957;28;20221;-46
2024/02/14 02:00:55;;;;;;;0.00;0.00;;;27.10;36.20;;;;;;5018291;28;20204;-42
2024/02/14 02:03:26;;;;;;;0.00;0.00;;;27.10;36.40;;;;;;4994194;28;20209;-47
2024/02/14 02:05:58;;;;;;;0.00;0.00;;;27.10;36.30;;;;;;5004378;28;20209;-49
2024/02/14 02:08:28;;;;;;;0.00;0.00;;;27.20;36.60;;;;;;5014469;28;20228;-46
2024/02/14 02:10:59;;;;;;;0.00;0.00;;;27.20;36.70;;;;;;5013745;28;20204;-48
2024/02/14 02:13:31;;;;;;;0.00;0.00;;;27.20;36.70;;;;;;5019168;28;20188;-44
2024/02/14 02:16:04;;;;;;;0.00;0.00;;;27.20;36.50;;;;;;5033928;28;20218;-47
2024/02/14 02:18:35;;;;;;;0.00;0.00;;;27.30;36.40;;;;;;5032775;28;20220;-49
2024/02/14 02:21:06;;;;;;;0.00;0.00;;;27.30;36.50;;;;;;5033949;28;20207;-47
2024/02/14 02:23:40;;;;;;;0.00;0.00;;;27.30;36.50;;;;;;5033395;28;20207;-49
2024/02/14 02:26:11;;;;;;;0.00;0.00;;;27.30;36.30;;;;;;5029533;28;20307;-45
2024/02/14 02:28:42;;;;;;;0.00;0.00;;;27.30;36.20;;;;;;5030475;28;20250;-48
2024/02/14 02:31:14;;;;;;;0.00;0.00;;;27.40;36.10;;;;;;5031361;28;20797;-48
2024/02/14 02:33:45;;;;;;;0.00;0.00;;;27.40;36.00;;;;;;5029712;28;20578;-45
2024/02/14 02:36:16;;;;;;;0.00;0.00;;;27.40;35.70;;;;;;5030465;28;20204;-44
2024/02/14 02:38:48;;;;;;;0.00;0.00;;;27.40;35.50;;;;;;5028982;28;20212;-46
2024/02/14 02:41:20;;;;;;;0.00;0.00;;;27.50;35.40;;;;;;5012667;28;20500;-44
2024/02/14 02:43:50;;;;;;;0.00;0.00;;;27.50;35.50;;;;;;5010086;28;20653;-43
2024/02/14 02:46:21;;;;;;;0.00;0.00;;;27.50;35.30;;;;;;5009894;28;20236;-42
2024/02/14 02:48:54;;;;;;;0.00;0.00;;;27.60;35.40;;;;;;5008551;28;20235;-42
2024/02/14 02:51:25;;;;;;;0.00;0.00;;;27.60;35.30;;;;;;5007312;28;20221;-49
2024/02/14 02:53:58;;;;;;;0.00;0.00;;;27.60;35.10;;;;;;5024554;28;20550;-48
2024/02/14 02:56:29;;;;;;;0.00;0.00;;;27.70;35.20;;;;;;5009722;28;20197;-42
2024/02/14 02:59:01;;;;;;;0.00;0.00;;;27.70;35.20;;;;;;5009940;28;20228;-46
2024/02/14 03:01:38;;;;;;;0.00;0.00;;;27.70;35.10;;;;;;5009380;28;20674;-46
2024/02/14 03:04:12;;;;;;;0.00;0.00;;;27.70;35.30;;;;;;5010070;28;20204;-46
2024/02/14 03:06:44;;;;;;;0.00;0.00;;;27.80;35.40;;;;;;5028754;28;20221;-48
2024/02/14 03:09:17;;;;;;;0.00;0.00;;;27.80;35.20;;;;;;5029977;28;20224;-48
2024/02/14 03:11:50;;;;;;;0.00;0.00;;;27.80;35.20;;;;;;5011121;28;20237;-43
2024/02/14 03:14:25;;;;;;;0.00;0.00;;;27.80;35.30;;;;;;5009946;28;20201;-47
2024/02/14 03:16:59;;;;;;;0.00;0.00;;;27.80;35.00;;;;;;5012827;28;20192;-48
2024/02/14 03:19:30;;;;;;;0.00;0.00;;;27.90;34.90;;;;;;5028904;28;20220;-48
2024/02/14 03:22:01;;;;;;;0.00;0.00;;;27.90;34.80;;;;;;5029502;28;20208;-45
2024/02/14 03:24:35;;;;;;;0.00;0.00;;;27.90;34.60;;;;;;5028943;28;20258;-46
2024/02/14 03:27:06;;;;;;;0.00;0.00;;;27.90;34.70;;;;;;5029430;28;20207;-42
2024/02/14 03:29:38;;;;;;;0.00;0.00;;;28.00;34.60;;;;;;5029195;28;20779;-42
2024/02/14 03:32:09;;;;;;;0.00;0.00;;;28.00;34.50;;;;;;5029621;28;20670;-45
2024/02/14 03:34:40;;;;;;;0.00;0.00;;;28.00;34.50;;;;;;5029145;28;20200;-42
2024/02/14 03:37:11;;;;;;;0.00;0.00;;;28.10;34.20;;;;;;5027908;28;20196;-42
2024/02/14 03:39:45;;;;;;;0.00;0.00;;;28.10;34.30;;;;;;5012908;28;20213;-44
2024/02/14 03:42:16;;;;;;;0.00;0.00;;;28.20;34.40;;;;;;5008902;28;20207;-43
2024/02/14 03:44:47;;;;;;;0.00;0.00;;;28.20;34.40;;;;;;5020840;28;20204;-42
2024/02/14 03:47:18;;;;;;;0.00;0.00;;;28.30;34.50;;;;;;5002617;28;20252;-49
2024/02/14 03:49:49;;;;;;;0.00;0.00;;;28.30;34.40;;;;;;4988256;28;20607;-43
2024/02/14 03:52:20;;;;;;;0.00;0.00;;;28.30;34.50;;;;;;4989292;28;20225;-43
2024/02/14 03:54:53;;;;;;;0.00;0.00;;;28.30;34.60;;;;;;5001955;28;20208;-48
2024/02/14 03:57:25;;;;;;;0.00;0.00;;;28.30;34.60;;;;;;5012401;28;20204;-42
2024/02/14 03:59:56;;;;;;;0.00;0.00;;;28.40;34.60;;;;;;5028643;28;20227;-43
2024/02/14 04:02:28;;;;;;;0.00;0.00;;;28.40;34.50;;;;;;5016424;28;20567;-42
2024/02/14 04:04:58;;;;;;;0.00;0.00;;;28.40;34.40;;;;;;5009218;28;20208;-48
2024/02/14 04:07:29;;;;;;;0.00;0.00;;;28.40;34.30;;;;;;5003122;28;20201;-43
2024/02/14 04:10:02;;;;;;;0.00;0.00;;;28.50;34.40;;;;;;4992167;28;20235;-48
2024/02/14 04:12:33;;;;;;;0.00;0.00;;;28.50;34.20;;;;;;5024761;28;20223;-48
2024/02/14 04:15:04;;;;;;;0.00;0.00;;;28.50;34.20;;;;;;5028113;28;20196;-49
2024/02/14 04:17:34;;;;;;;0.00;0.00;;;28.50;34.60;;;;;;5028113;28;20211;-46
2024/02/14 04:20:05;;;;;;;0.00;0.00;;;28.50;34.10;;;;;;5028533;28;20655;-47
2024/02/14 04:22:36;;;;;;;0.00;0.00;;;28.60;34.10;;;;;;5028870;28;20200;-49
2024/02/14 04:25:12;;;;;;;0.00;0.00;;;28.60;34.10;;;;;;5027675;28;20291;-42
2024/02/14 04:27:43;;;;;;;0.00;0.00;;;28.60;34.00;;;;;;5028117;28;20203;-46
2024/02/14 04:30:15;;;;;;;0.00;0.00;;;28.60;33.90;;;;;;5016389;28;20208;-45
2024/02/14 04:32:46;;;;;;;0.00;0.00;;;28.60;33.80;;;;;;4997793;28;20243;-43
2024/02/14 04:35:17;;;;;;;0.00;0.00;;;28.70;33.50;;;;;;5007326;28;20204;-43
2024/02/14 04:37:49;;;;;;;0.00;0.00;;;28.70;33.20;;;;;;5009932;28;20279;-44
2024/02/14 04:40:21;;;;;;;0.00;0.00;;;28.70;32.90;;;;;;5005395;28;20228;-42
2024/02/14 04:42:52;;;;;;;0.00;0.00;;;28.70;33.00;;;;;;5008374;28;20208;-45
2024/02/14 04:45:23;;;;;;;0.00;0.00;;;28.70;32.80;;;;;;5003506;28;20200;-43
2024/02/14 04:47:54;;;;;;;0.00;0.00;;;28.80;32.70;;;;;;5008198;28;20688;-44
2024/02/14 04:50:24;;;;;;;0.00;0.00;;;28.80;32.80;;;;;;5011737;28;20208;-46
2024/02/14 04:52:55;;;;;;;0.00;0.00;;;28.80;32.80;;;;;;5015416;28;20220;-47
2024/02/14 04:55:28;;;;;;;0.00;0.00;;;28.90;32.70;;;;;;4993739;28;20271;-44
2024/02/14 04:57:59;;;;;;;0.00;0.00;;;28.90;32.60;;;;;;5008240;28;20672;-48
2024/02/14 05:00:30;;;;;;;0.00;0.00;;;28.90;32.80;;;;;;5003653;28;20670;-42
2024/02/14 05:03:01;;;;;;;0.00;0.00;;;28.90;32.80;;;;;;5011232;28;20210;-49
2024/02/14 05:05:33;;;;;;;0.00;0.00;;;29.00;32.80;;;;;;5027859;28;20660;-42
2024/02/14 05:08:04;;;;;;;0.00;0.00;;;29.00;32.80;;;;;;5000592;28;20204;-46
2024/02/14 05:10:36;;;;;;;0.00;0.00;;;29.00;32.80;;;;;;5008222;28;20661;-43
2024/02/14 05:13:07;;;;;;;0.00;0.00;;;29.00;32.80;;;;;;4992559;28;20236;-49
2024/02/14 05:15:38;;;;;;;0.00;0.00;;;29.00;32.70;;;;;;4990436;28;20728;-47
2024/02/14 05:18:09;;;;;;;0.00;0.00;;;29.00;32.60;;;;;;4993346;28;20222;-50
2024/02/14 05:20:40;;;;;;;0.00;0.00;;;29.10;32.70;;;;;;4988267;28;20205;-47
2024/02/14 05:23:11;;;;;;;0.00;0.00;;;29.10;32.80;;;;;;4986799;28;20287;-50
2024/02/14 05:25:43;;;;;;;0.00;0.00;;;29.10;32.90;;;;;;4987698;28;20205;-49
2024/02/14 05:28:14;;;;;;;0.00;0.00;;;29.10;32.70;;;;;;4992434;28;20225;-48
2024/02/14 05:30:45;;;;;;;0.00;0.00;;;29.20;32.80;;;;;;4987941;28;20236;-46
2024/02/14 05:33:18;;;;;;;0.00;0.00;;;29.10;32.80;;;;;;4988012;28;20225;-46
2024/02/14 05:35:49;;;;;;;0.00;0.00;;;29.20;32.80;;;;;;4986077;28;20620;-46
2024/02/14 05:38:20;;;;;;;0.00;0.00;;;29.20;32.70;;;;;;4987512;28;20227;-49
2024/02/14 05:40:54;;;;;;;0.00;0.00;;;29.20;32.80;;;;;;4984154;28;20280;-48
2024/02/14 05:43:25;;;;;;;0.00;0.00;;;29.20;32.70;;;;;;5009509;28;20225;-47
2024/02/14 05:45:56;;;;;;;0.00;0.00;;;29.20;32.70;;;;;;4987581;28;20210;-48
2024/02/14 05:48:26;;;;;;;0.00;0.00;;;29.20;32.80;;;;;;4988125;28;20308;-46
2024/02/14 05:50:57;;;;;;;0.00;0.00;;;29.30;32.80;;;;;;4987687;28;20292;-45
2024/02/14 05:53:28;;;;;;;0.00;0.00;;;29.30;32.90;;;;;;4988407;28;20272;-49
2024/02/14 05:56:00;;;;;;;0.00;0.00;;;29.30;33.00;;;;;;5006682;28;20218;-47
2024/02/14 05:58:31;;;;;;;0.00;0.00;;;29.30;33.10;;;;;;4993844;28;20309;-43
2024/02/14 06:01:02;;;;;;;0.00;0.00;;;29.30;33.20;;;;;;4991150;28;20260;-48
2024/02/14 06:03:33;;;;;;;0.00;0.00;;;29.30;33.00;;;;;;5004363;28;20212;-43
2024/02/14 06:06:03;;;;;;;0.00;0.00;;;29.30;32.90;;;;;;5010915;28;20201;-46
2024/02/14 06:08:34;;;;;;;0.00;0.00;;;29.30;32.90;;;;;;5005204;28;20229;-48
2024/02/14 06:11:07;;;;;;;0.00;0.00;;;29.30;32.90;;;;;;5006598;28;20712;-47
2024/02/14 06:13:38;;;;;;;0.00;0.00;;;29.30;32.90;;;;;;5014005;28;20231;-48
2024/02/14 06:16:19;;;;;;;0.00;0.00;;;29.30;32.90;;;;;;5014394;28;20196;-47
2024/02/14 06:18:50;;;;;;;0.00;0.00;;;29.30;32.90;;;;;;5013911;28;20239;-49
2024/02/14 06:21:21;;;;;;;0.00;0.00;;;29.40;33.30;;;;;;5014723;28;20668;-49
2024/02/14 06:23:51;;;;;;;0.00;0.00;;;29.30;33.00;;;;;;5014287;28;20205;-48
2024/02/14 06:26:24;;;;;;;0.00;0.00;;;29.30;33.10;;;;;;5013647;28;20197;-48
2024/02/14 06:28:55;;;;;;;0.00;0.00;;;29.30;33.00;;;;;;5014047;28;20221;-45
2024/02/14 06:31:26;;;;;;;0.00;0.00;;;29.30;33.10;;;;;;5014115;28;20205;-49
2024/02/14 06:33:57;;;;;;;0.00;0.00;;;29.30;33.10;;;;;;5011745;28;20217;-49
2024/02/14 06:36:27;;;;;;;0.00;0.00;;;29.30;33.20;;;;;;5014211;28;20207;-45
2024/02/14 06:38:58;;;;;;;0.00;0.00;;;29.30;33.20;;;;;;5014159;28;20216;-49
2024/02/14 06:41:31;;;;;;;0.00;0.00;;;29.30;33.00;;;;;;5013165;28;20266;-45
2024/02/14 06:44:02;;;;;;;0.00;0.00;;;29.30;32.70;;;;;;5013775;28;20200;-46
2024/02/14 06:46:32;;;;;;;0.00;0.00;;;29.30;32.60;;;;;;5013788;28;20203;-44
2024/02/14 06:49:03;;;;;;;0.00;0.00;;;29.30;32.50;;;;;;5012920;28;20221;-48
2024/02/14 06:51:34;;;;;;;0.00;0.00;;;29.30;32.30;;;;;;4996244;28;20193;-46
2024/02/14 06:54:05;;;;;;;0.00;0.00;;;29.20;32.20;;;;;;4998932;28;20221;-46
2024/02/14 06:56:38;;;;;;;0.00;0.00;;;29.20;32.00;;;;;;5012554;28;20208;-47
2024/02/14 06:59:09;;;;;;;0.00;0.00;;;29.20;32.00;;;;;;5013555;28;20236;-46
2024/02/14 07:01:40;;;;;;;0.00;0.00;;;29.20;31.90;;;;;;5012858;28;20201;-46
2024/02/14 07:04:10;;;;;;;0.00;0.00;;;29.20;32.00;;;;;;5013205;28;20282;-46
2024/02/14 07:06:41;;;;;;;0.00;0.00;;;29.10;32.10;;;;;;5013496;28;20560;-47
2024/02/14 07:09:12;;;;;;;0.00;0.00;;;29.10;32.00;;;;;;5012680;28;20217;-49
2024/02/14 07:11:45;;;;;;;0.00;0.00;;;29.20;32.00;;;;;;5011983;28;20205;-46
2024/02/14 07:14:16;;;;;;;0.00;0.00;;;29.10;31.70;;;;;;5013515;28;20220;-45
2024/02/14 07:16:46;;;;;;;0.00;0.00;;;29.10;31.60;;;;;;5013793;28;20201;-45
2024/02/14 07:19:17;;;;;;;0.00;0.00;;;29.10;31.50;;;;;;5013090;28;20224;-46
2024/02/14 07:21:48;;;;;;;0.00;0.00;;;29.00;31.60;;;;;;5013630;28;20736;-45
2024/02/14 07:24:19;;;;;;;0.00;0.00;;;29.10;31.70;;;;;;5010810;28;20203;-45
2024/02/14 07:26:51;;;;;;;0.00;0.00;;;29.00;31.60;;;;;;5011595;28;20196;-50
2024/02/14 07:29:22;;;;;;;0.00;0.00;;;29.00;31.60;;;;;;4992793;28;20218;-45
2024/02/14 07:31:53;;;;;;;0.00;0.00;;;29.00;31.60;;;;;;4993155;28;20197;-46
2024/02/14 07:34:25;;;;;;;0.00;0.00;;;29.00;31.60;;;;;;5003735;28;20264;-46
2024/02/14 07:36:56;;;;;;;0.00;0.00;;;28.90;31.50;;;;;;5013191;28;20192;-48
2024/02/14 07:39:26;;;;;;;0.00;0.00;;;28.90;31.40;;;;;;5012459;28;20299;-49
2024/02/14 07:41:59;;;;;;;0.00;0.00;;;28.90;31.30;;;;;;5012769;28;20201;-49
2024/02/14 07:44:30;;;;;;;0.00;0.00;;;28.90;31.40;;;;;;5013328;28;20201;-49
2024/02/14 07:47:00;;;;;;;0.00;0.00;;;28.80;31.40;;;;;;5012933;28;20200;-46
2024/02/14 07:49:31;;;;;;;0.00;0.00;;;28.80;31.50;;;;;;5011941;28;20213;-47
2024/02/14 07:52:02;;;;;;;0.00;0.00;;;28.70;31.50;;;;;;5012302;28;20308;-45
2024/02/14 07:54:33;;;;;;;0.00;0.00;;;28.70;31.50;;;;;;5011716;28;20224;-46
2024/02/14 07:57:07;;;;;;;0.00;0.00;;;28.70;31.60;;;;;;5012834;28;20536;-49
2024/02/14 07:59:38;;;;;;;0.00;0.00;;;28.60;31.60;;;;;;5011482;28;20227;-46
2024/02/14 08:02:09;;;;;;;0.00;0.00;;;28.60;31.70;;;;;;5012693;28;20571;-47
2024/02/14 08:04:40;;;;;;;0.00;0.00;;;28.60;31.90;;;;;;5012628;28;20195;-43
2024/02/14 08:07:11;;;;;;;0.00;0.00;;;28.60;31.80;;;;;;5012674;28;20668;-45
2024/02/14 08:09:42;;;;;;;0.00;0.00;;;28.60;31.90;;;;;;5011928;28;20246;-47
2024/02/14 08:12:14;;;;;;;0.00;0.00;;;28.60;32.00;;;;;;5000978;28;20194;-46
2024/02/14 08:14:45;;;;;;;0.00;0.00;;;28.50;31.90;;;;;;4992965;28;20229;-48
2024/02/14 08:17:16;;;;;;;0.00;0.00;;;28.50;32.00;;;;;;4992809;28;20193;-49
2024/02/14 08:19:46;;;;;;;0.00;0.00;;;28.50;32.00;;;;;;4992144;28;20213;-49
2024/02/14 08:22:17;;;;;;;0.00;0.00;;;28.50;32.10;;;;;;4991762;28;20201;-48
2024/02/14 08:24:48;;;;;;;0.00;0.00;;;28.50;31.90;;;;;;4991650;28;20204;-48
2024/02/14 08:27:20;;;;;;;0.00;0.00;;;28.40;31.60;;;;;;4995100;28;20190;-46
2024/02/14 08:29:51;;;;;;;0.00;0.00;;;28.40;31.50;;;;;;4992773;28;20400;-42
2024/02/14 08:32:22;;;;;;;0.00;0.00;;;28.40;31.60;;;;;;4991870;28;20201;-48
2024/02/14 08:34:53;;;;;;;0.00;0.00;;;28.30;31.60;;;;;;5003835;28;20243;-45
2024/02/14 08:37:24;;;;;;;0.00;0.00;;;28.30;31.70;;;;;;5006971;28;20197;-41
2024/02/14 08:39:55;;;;;;;0.00;0.00;;;28.30;31.90;;;;;;4991225;28;20693;-47
2024/02/14 08:42:28;;;;;;;0.00;0.00;;;28.20;31.90;;;;;;5005139;28;20197;-46
2024/02/14 08:44:58;;;;;;;0.00;0.00;;;28.20;32.00;;;;;;4996082;28;20213;-43
2024/02/14 08:47:29;;;;;;;0.00;0.00;;;28.20;32.40;;;;;;5025181;28;20234;-40
2024/02/14 08:50:00;;;;;;;0.00;0.00;;;28.10;32.20;;;;;;4996744;28;20225;-41
2024/02/14 08:52:30;;;;;;;0.00;0.00;;;28.10;32.30;;;;;;4988034;28;20709;-41
2024/02/14 08:55:01;;;;;;;0.00;0.00;;;28.10;32.40;;;;;;4988316;28;20247;-44
2024/02/14 08:57:34;;;;;;;0.00;0.00;;;28.10;33.20;;;;;;4988568;28;20200;-41
2024/02/14 09:00:05;;;;;;;0.00;0.00;;;28.00;32.70;;;;;;4994002;28;20231;-40
2024/02/14 09:02:36;;;;;;;0.00;0.00;;;28.00;32.80;;;;;;4986760;28;20209;-43
2024/02/14 09:05:09;;;;;;;0.00;0.00;;;28.00;32.90;;;;;;4987135;28;20795;-49
2024/02/14 09:07:41;;;;;;;0.00;0.00;;;28.00;33.00;;;;;;4985565;28;20531;-43
2024/02/14 09:10:12;;;;;;;0.00;0.00;;;28.00;33.00;;;;;;4991166;28;20215;-45
2024/02/14 09:12:45;;;;;;;0.00;0.00;;;28.00;33.20;;;;;;4991927;28;20254;-47
2024/02/14 09:15:16;;;;;;;0.00;0.00;;;27.90;33.10;;;;;;4994994;28;20225;-46
2024/02/14 09:17:46;;;;;;;0.00;0.00;;;27.90;33.20;;;;;;4985111;28;20197;-43
2024/02/14 09:20:18;;;;;;;0.00;0.00;;;27.90;33.30;;;;;;4986221;28;20194;-42
2024/02/14 09:22:49;;;;;;;0.00;0.00;;;27.90;33.30;;;;;;4985318;28;20246;-42
2024/02/14 09:25:20;;;;;;;0.00;0.00;;;27.80;33.40;;;;;;5005903;28;20220;-42
2024/02/14 09:27:52;;;;;;;0.00;0.00;;;27.80;33.60;;;;;;5012241;28;20637;-48
2024/02/14 09:30:23;;;;;;;0.00;0.00;;;27.80;33.70;;;;;;4988157;28;20688;-46
2024/02/14 09:32:54;;;;;;;0.00;0.00;;;27.80;33.80;;;;;;4984794;28;20201;-46
2024/02/14 09:35:25;;;;;;;0.00;0.00;;;27.80;34.50;;;;;;4988913;28;20420;-46
2024/02/14 09:37:56;;;;;;;0.00;0.00;;;27.70;33.90;;;;;;4996862;28;20192;-42
2024/02/14 09:40:27;;;;;;;0.00;0.00;;;27.70;33.90;;;;;;5002446;28;20887;-47
2024/02/14 09:43:04;;;;;;;0.00;0.00;;;27.70;33.90;;;;;;4991391;28;20197;-47
2024/02/14 09:45:35;;;;;;;0.00;0.00;;;27.70;34.00;;;;;;4990469;28;20642;-46
2024/02/14 09:48:06;;;;;;;0.00;0.00;;;27.60;34.00;;;;;;4991881;28;20260;-49
2024/02/14 09:50:38;;;;;;;0.00;0.00;;;27.60;34.00;;;;;;4989799;28;20949;-41
2024/02/14 09:53:09;;;;;;;0.00;0.00;;;27.50;34.10;;;;;;4996465;28;20553;-49
2024/02/14 09:55:41;;;;;;;0.00;0.00;;;27.60;34.10;;;;;;5016295;28;20205;-49
2024/02/14 09:58:14;;;;;;;0.00;0.00;;;27.60;34.10;;;;;;5004876;28;20699;-47
2024/02/14 10:00:45;;;;;;;0.00;0.00;;;27.50;34.20;;;;;;5010400;28;20208;-47
2024/02/14 10:03:16;;;;;;;0.00;0.00;;;27.50;34.20;;;;;;5001065;28;20213;-46
2024/02/14 10:05:47;;;;;;;0.00;0.00;;;27.50;34.20;;;;;;5006457;28;20668;-48
2024/02/14 10:08:18;;;;;;;0.00;0.00;;;27.50;34.20;;;;;;5009690;28;20791;-45
2024/02/14 10:10:49;;;;;;;0.00;0.00;;;27.40;34.20;;;;;;5001111;28;20208;-46
2024/02/14 10:13:22;;;;;;;0.00;0.00;;;27.40;34.20;;;;;;5010961;28;20569;-46
2024/02/14 10:15:54;;;;;;;0.00;0.00;;;27.40;34.30;;;;;;5003530;28;20208;-50
2024/02/14 10:18:26;;;;;;;0.00;0.00;;;27.40;34.20;;;;;;4999724;28;20226;-47
2024/02/14 10:20:58;;;;;;;0.00;0.00;;;27.30;34.30;;;;;;5010738;28;20236;-45
2024/02/14 10:23:32;;;;;;;0.00;0.00;;;27.30;34.30;;;;;;5010187;28;20216;-47
2024/02/14 10:26:03;;;;;;;0.00;0.00;;;27.30;34.30;;;;;;4999009;28;20676;-50
2024/02/14 10:28:37;;;;;;;0.00;0.00;;;27.30;34.30;;;;;;5001682;28;20216;-49
2024/02/14 10:31:10;;;;;;;0.00;0.00;;;27.20;34.30;;;;;;5003021;28;20299;-46
2024/02/14 10:33:40;;;;;;;0.00;0.00;;;27.20;34.30;;;;;;5018628;28;20208;-47
2024/02/14 10:36:14;;;;;;;0.00;0.00;;;27.10;34.20;;;;;;5026670;28;20660;-40
2024/02/14 10:38:46;;;;;;;0.00;0.00;;;27.10;34.90;;;;;;4990510;28;20222;-43
2024/02/14 10:41:17;;;;;;;0.00;0.00;;;27.10;34.30;;;;;;5004539;28;20218;-47
2024/02/14 10:43:50;;;;;;;0.00;0.00;;;27.00;34.30;;;;;;4992166;28;20224;-47
2024/02/14 10:46:25;;;;;;;0.00;0.00;;;27.00;34.40;;;;;;5005548;28;20279;-50
2024/02/14 10:48:59;;;;;;;0.00;0.00;;;27.00;34.40;;;;;;5012387;28;20225;-50
2024/02/14 10:51:35;;;;;;;0.00;0.00;;;27.00;34.50;;;;;;5005546;28;20203;-48
2024/02/14 10:54:11;;;;;;;0.00;0.00;;;27.00;34.50;;;;;;5013894;28;20587;-47
2024/02/14 10:56:44;;;;;;;0.00;0.00;;;27.00;34.60;;;;;;5013801;28;20232;-49
2024/02/14 10:59:19;;;;;;;0.00;0.00;;;26.90;34.50;;;;;;5013497;28;20692;-50
2024/02/14 11:01:51;;;;;;;0.00;0.00;;;26.90;34.50;;;;;;5013645;28;20210;-50
2024/02/14 11:04:23;;;;;;;0.00;0.00;;;26.90;34.50;;;;;;5007875;28;20192;-48
2024/02/14 11:07:02;;;;;;;0.00;0.00;;;26.90;34.50;;;;;;5011023;28;20193;-48
2024/02/14 11:09:38;;;;;;;0.00;0.00;;;26.80;34.50;;;;;;5012622;28;20756;-49
2024/02/14 11:12:11;;;;;;;0.00;0.00;;;26.80;34.50;;;;;;5012306;28;20637;-46
2024/02/14 11:14:46;;;;;;;0.00;0.00;;;26.70;34.40;;;;;;5013739;28;20283;-47
2024/02/14 11:17:20;;;;;;;0.00;0.00;;;26.70;34.40;;;;;;5013470;28;20204;-48
2024/02/14 11:19:51;;;;;;;0.00;0.00;;;26.70;34.40;;;;;;5006125;28;20716;-48
2024/02/14 11:22:23;;;;;;;0.00;0.00;;;26.70;34.40;;;;;;5013216;28;20197;-48
2024/02/14 11:24:53;;;;;;;0.00;0.00;;;26.60;34.40;;;;;;5013821;28;20207;-50
2024/02/14 11:27:26;;;;;;;0.00;0.00;;;26.60;34.50;;;;;;5013328;28;20200;-47
2024/02/14 11:29:59;;;;;;;0.00;0.00;;;26.50;34.40;;;;;;5013562;28;20217;-48
2024/02/14 11:32:31;;;;;;;0.00;0.00;;;26.50;34.40;;;;;;5012774;28;20199;-50
2024/02/14 11:35:02;;;;;;;0.00;0.00;;;26.50;34.40;;;;;;5012826;28;20221;-50
2024/02/14 11:37:33;;;;;;;0.00;0.00;;;26.50;34.40;;;;;;5009905;28;20610;-48
2024/02/14 11:40:07;;;;;;;0.00;0.00;;;26.50;34.40;;;;;;5002729;28;20217;-48
2024/02/14 11:42:37;;;;;;;0.00;0.00;;;26.50;34.50;;;;;;5003292;28;20193;-50
2024/02/14 11:45:11;;;;;;;0.00;0.00;;;26.50;34.50;;;;;;5003306;28;20190;-49
2024/02/14 11:47:41;;;;;;;0.00;0.00;;;26.40;34.50;;;;;;5002108;28;20194;-50
2024/02/14 11:50:12;;;;;;;0.00;0.00;;;26.40;34.40;;;;;;5001350;28;20185;-44
2024/02/14 11:52:43;;;;;;;0.00;0.00;;;26.40;34.50;;;;;;5002256;28;20189;-47
2024/02/14 11:55:15;;;;;;;0.00;0.00;;;26.40;34.50;;;;;;5001406;28;20249;-44
2024/02/14 11:57:48;;;;;;;0.00;0.00;;;26.30;34.40;;;;;;5001302;28;20204;-46
2024/02/14 12:00:21;;;;;;;0.00;0.00;;;26.30;34.40;;;;;;5001435;28;20277;-49
2024/02/14 12:02:52;;;;;;;0.00;0.00;;;26.30;34.50;;;;;;5001540;28;20204;-49
2024/02/14 12:05:23;;;;;;;0.00;0.00;;;26.30;34.50;;;;;;5001521;28;20200;-48
2024/02/14 12:07:54;;;;;;;0.00;0.00;;;26.20;34.40;;;;;;5003262;28;20189;-43
2024/02/14 12:10:25;;;;;;;0.00;0.00;;;26.20;34.40;;;;;;5002031;28;20204;-45
2024/02/14 12:12:56;;;;;;;0.00;0.00;;;26.20;34.50;;;;;;5001267;28;20193;-41
2024/02/14 12:15:29;;;;;;;0.00;0.00;;;26.20;34.50;;;;;;5002028;28;20220;-50
2024/02/14 12:18:00;;;;;;;0.00;0.00;;;26.20;34.50;;;;;;5001675;28;20658;-49
2024/02/14 12:20:31;;;;;;;0.00;0.00;;;26.20;34.50;;;;;;5001168;28;20197;-52
2024/02/14 12:23:02;;;;;;;0.00;0.00;;;26.10;34.50;;;;;;5001373;28;20196;-51
2024/02/14 12:25:33;;;;;;;0.00;0.00;;;26.10;34.50;;;;;;5003100;28;20218;-50
2024/02/14 12:28:06;;;;;;;0.00;0.00;;;26.10;34.60;;;;;;4997812;28;20280;-52
2024/02/14 12:30:49;;;;;;;0.00;0.00;;;26.00;34.50;;;;;;4992628;28;20296;-45
2024/02/14 12:33:20;;;;;;;0.00;0.00;;;26.00;34.50;;;;;;4992836;28;20202;-50
2024/02/14 12:35:51;;;;;;;0.00;0.00;;;26.00;34.60;;;;;;4993307;28;20221;-50
2024/02/14 12:38:23;;;;;;;0.00;0.00;;;26.00;34.60;;;;;;4992154;28;20276;-50
2024/02/14 12:40:54;;;;;;;0.00;0.00;;;26.00;34.60;;;;;;4994753;28;20198;-46
2024/02/14 12:43:24;;;;;;;0.00;0.00;;;26.00;34.70;;;;;;4992574;28;20248;-45
2024/02/14 12:45:58;;;;;;;0.05;0.05;;;25.90;34.60;;;;;;4992553;28;20197;-50
2024/02/14 12:48:29;;;;;;;0.00;0.00;;;25.90;34.60;;;;;;5006462;28;20217;-47
2024/02/14 12:51:00;;;;;;;0.00;0.00;;;25.90;34.60;;;;;;5011429;28;20197;-52
2024/02/14 12:53:31;;;;;;;0.00;0.00;;;25.90;34.60;;;;;;5011759;28;20201;-48
2024/02/14 12:56:02;;;;;;;0.00;0.00;;;25.80;34.60;;;;;;5011918;28;20232;-48
2024/02/14 12:58:33;;;;;;;0.00;0.00;;;25.80;34.60;;;;;;5011861;28;20606;-49
2024/02/14 13:01:06;;;;;;;0.00;0.00;;;25.80;34.60;;;;;;5011649;28;20661;-50
2024/02/14 13:03:37;;;;;;;0.00;0.00;;;25.80;34.60;;;;;;5011681;28;20254;-47
2024/02/14 13:06:09;;;;;;;0.00;0.00;;;25.80;34.70;;;;;;5011696;28;20232;-47
2024/02/14 13:08:40;;;;;;;0.00;0.00;;;25.80;34.70;;;;;;5011226;28;20629;-50
2024/02/14 13:11:10;;;;;;;0.00;0.00;;;25.70;34.70;;;;;;5011810;28;20231;-50